sensor_id;sensor_type;location;lat;lon;timestamp;P1;durP1;ratioP1;P2;durP2;ratioP2
40959;SDS011;27842;52.272;8.052;2023-04-25T00:00:38;17.67;;;4.90;;
40959;SDS011;27842;52.272;8.052;2023-04-25T00:03:03;13.68;;;4.82;;
40959;SDS011;27842;52.272;8.052;2023-04-25T00:05:30;17.20;;;4.45;;
40959;SDS011;27842;52.272;8.052;2023-04-25T00:07:56;13.55;;;4.30;;
40959;SDS011;27842;52.272;8.052;2023-04-25T00:10:22;13.68;;;4.10;;
40959;SDS011;27842;52.272;8.052;2023-04-25T00:12:48;15.23;;;4.30;;
40959;SDS011;27842;52.272;8.052;2023-04-25T00:15:14;13.98;;;4.20;;
40959;SDS011;27842;52.272;8.052;2023-04-25T00:17:40;14.20;;;4.22;;
40959;SDS011;27842;52.272;8.052;2023-04-25T00:20:06;15.50;;;4.57;;
40959;SDS011;27842;52.272;8.052;2023-04-25T00:22:34;16.70;;;4.32;;
40959;SDS011;27842;52.272;8.052;2023-04-25T00:25:02;13.52;;;4.45;;
40959;SDS011;27842;52.272;8.052;2023-04-25T00:27:29;15.38;;;4.25;;
40959;SDS011;27842;52.272;8.052;2023-04-25T00:29:54;15.30;;;4.35;;
40959;SDS011;27842;52.272;8.052;2023-04-25T00:32:20;12.98;;;4.20;;
40959;SDS011;27842;52.272;8.052;2023-04-25T00:34:45;14.75;;;4.25;;
40959;SDS011;27842;52.272;8.052;2023-04-25T00:37:11;18.40;;;4.60;;
40959;SDS011;27842;52.272;8.052;2023-04-25T00:39:36;13.73;;;4.35;;
40959;SDS011;27842;52.272;8.052;2023-04-25T00:42:02;10.27;;;3.70;;
40959;SDS011;27842;52.272;8.052;2023-04-25T00:44:29;13.95;;;4.18;;
40959;SDS011;27842;52.272;8.052;2023-04-25T00:46:57;13.43;;;4.10;;
40959;SDS011;27842;52.272;8.052;2023-04-25T00:49:23;16.70;;;4.00;;
40959;SDS011;27842;52.272;8.052;2023-04-25T00:51:48;11.57;;;3.78;;
40959;SDS011;27842;52.272;8.052;2023-04-25T00:54:14;12.60;;;3.67;;
40959;SDS011;27842;52.272;8.052;2023-04-25T00:56:40;15.60;;;4.20;;
40959;SDS011;27842;52.272;8.052;2023-04-25T00:59:06;18.33;;;4.65;;
40959;SDS011;27842;52.272;8.052;2023-04-25T01:01:34;16.65;;;5.68;;
40959;SDS011;27842;52.272;8.052;2023-04-25T01:04:00;24.48;;;5.22;;
40959;SDS011;27842;52.272;8.052;2023-04-25T01:06:26;18.13;;;4.60;;
40959;SDS011;27842;52.272;8.052;2023-04-25T01:08:53;24.52;;;5.90;;
40959;SDS011;27842;52.272;8.052;2023-04-25T01:11:19;21.92;;;6.25;;
40959;SDS011;27842;52.272;8.052;2023-04-25T01:13:45;24.70;;;5.85;;
40959;SDS011;27842;52.272;8.052;2023-04-25T01:16:10;29.58;;;5.45;;
40959;SDS011;27842;52.272;8.052;2023-04-25T01:18:36;29.60;;;6.25;;
40959;SDS011;27842;52.272;8.052;2023-04-25T01:21:10;24.27;;;5.68;;
40959;SDS011;27842;52.272;8.052;2023-04-25T01:23:38;24.95;;;5.28;;
40959;SDS011;27842;52.272;8.052;2023-04-25T01:26:05;29.27;;;5.80;;
40959;SDS011;27842;52.272;8.052;2023-04-25T01:28:33;22.50;;;4.68;;
40959;SDS011;27842;52.272;8.052;2023-04-25T01:30:59;22.63;;;5.05;;
40959;SDS011;27842;52.272;8.052;2023-04-25T01:33:25;26.23;;;5.55;;
40959;SDS011;27842;52.272;8.052;2023-04-25T01:35:50;25.25;;;6.13;;
40959;SDS011;27842;52.272;8.052;2023-04-25T01:38:16;22.52;;;5.63;;
40959;SDS011;27842;52.272;8.052;2023-04-25T01:40:42;19.63;;;5.50;;
40959;SDS011;27842;52.272;8.052;2023-04-25T01:43:10;21.67;;;5.00;;
40959;SDS011;27842;52.272;8.052;2023-04-25T01:45:37;21.17;;;5.47;;
40959;SDS011;27842;52.272;8.052;2023-04-25T01:48:07;20.95;;;4.93;;
40959;SDS011;27842;52.272;8.052;2023-04-25T01:50:37;21.10;;;4.63;;
40959;SDS011;27842;52.272;8.052;2023-04-25T01:53:04;22.48;;;4.90;;
40959;SDS011;27842;52.272;8.052;2023-04-25T01:55:30;21.13;;;4.60;;
40959;SDS011;27842;52.272;8.052;2023-04-25T01:57:57;24.23;;;4.85;;
40959;SDS011;27842;52.272;8.052;2023-04-25T02:00:23;25.67;;;4.72;;
40959;SDS011;27842;52.272;8.052;2023-04-25T02:02:49;20.15;;;3.92;;
40959;SDS011;27842;52.272;8.052;2023-04-25T02:05:15;23.90;;;4.50;;
40959;SDS011;27842;52.272;8.052;2023-04-25T02:07:41;26.92;;;5.05;;
40959;SDS011;27842;52.272;8.052;2023-04-25T02:10:07;22.90;;;5.30;;
40959;SDS011;27842;52.272;8.052;2023-04-25T02:12:33;20.77;;;4.55;;
40959;SDS011;27842;52.272;8.052;2023-04-25T02:15:00;22.48;;;4.32;;
40959;SDS011;27842;52.272;8.052;2023-04-25T02:17:25;28.23;;;4.82;;
40959;SDS011;27842;52.272;8.052;2023-04-25T02:19:51;23.90;;;4.80;;
40959;SDS011;27842;52.272;8.052;2023-04-25T02:22:16;22.63;;;4.05;;
40959;SDS011;27842;52.272;8.052;2023-04-25T02:24:42;22.75;;;4.15;;
40959;SDS011;27842;52.272;8.052;2023-04-25T02:27:08;18.40;;;4.85;;
40959;SDS011;27842;52.272;8.052;2023-04-25T02:29:33;21.98;;;4.93;;
40959;SDS011;27842;52.272;8.052;2023-04-25T02:31:59;27.27;;;4.13;;
40959;SDS011;27842;52.272;8.052;2023-04-25T02:34:24;22.17;;;4.60;;
40959;SDS011;27842;52.272;8.052;2023-04-25T02:36:50;23.40;;;4.70;;
40959;SDS011;27842;52.272;8.052;2023-04-25T02:39:16;19.65;;;4.75;;
40959;SDS011;27842;52.272;8.052;2023-04-25T02:41:42;23.10;;;4.25;;
40959;SDS011;27842;52.272;8.052;2023-04-25T02:44:07;18.15;;;4.03;;
40959;SDS011;27842;52.272;8.052;2023-04-25T02:46:33;21.85;;;4.18;;
40959;SDS011;27842;52.272;8.052;2023-04-25T02:48:58;19.23;;;3.63;;
40959;SDS011;27842;52.272;8.052;2023-04-25T02:51:24;26.00;;;4.13;;
40959;SDS011;27842;52.272;8.052;2023-04-25T02:53:49;27.08;;;4.43;;
40959;SDS011;27842;52.272;8.052;2023-04-25T02:56:15;22.95;;;4.53;;
40959;SDS011;27842;52.272;8.052;2023-04-25T02:58:40;21.40;;;4.63;;
40959;SDS011;27842;52.272;8.052;2023-04-25T03:01:06;17.63;;;3.92;;
40959;SDS011;27842;52.272;8.052;2023-04-25T03:03:31;19.27;;;3.80;;
40959;SDS011;27842;52.272;8.052;2023-04-25T03:05:57;21.33;;;3.85;;
40959;SDS011;27842;52.272;8.052;2023-04-25T03:08:23;15.10;;;3.42;;
40959;SDS011;27842;52.272;8.052;2023-04-25T03:10:50;23.23;;;3.95;;
40959;SDS011;27842;52.272;8.052;2023-04-25T03:13:17;18.45;;;4.50;;
40959;SDS011;27842;52.272;8.052;2023-04-25T03:15:43;19.05;;;3.90;;
40959;SDS011;27842;52.272;8.052;2023-04-25T03:18:08;20.52;;;4.00;;
40959;SDS011;27842;52.272;8.052;2023-04-25T03:20:34;21.98;;;4.22;;
40959;SDS011;27842;52.272;8.052;2023-04-25T03:22:59;23.20;;;4.95;;
40959;SDS011;27842;52.272;8.052;2023-04-25T03:25:25;17.55;;;3.95;;
40959;SDS011;27842;52.272;8.052;2023-04-25T03:27:50;23.35;;;4.72;;
40959;SDS011;27842;52.272;8.052;2023-04-25T03:30:16;20.88;;;4.20;;
40959;SDS011;27842;52.272;8.052;2023-04-25T03:32:42;20.92;;;3.85;;
40959;SDS011;27842;52.272;8.052;2023-04-25T03:35:08;20.08;;;4.07;;
40959;SDS011;27842;52.272;8.052;2023-04-25T03:37:33;22.48;;;4.82;;
40959;SDS011;27842;52.272;8.052;2023-04-25T03:39:59;23.25;;;4.50;;
40959;SDS011;27842;52.272;8.052;2023-04-25T03:42:25;17.23;;;4.30;;
40959;SDS011;27842;52.272;8.052;2023-04-25T03:44:51;23.52;;;5.10;;
40959;SDS011;27842;52.272;8.052;2023-04-25T03:47:16;19.35;;;4.40;;
40959;SDS011;27842;52.272;8.052;2023-04-25T03:49:42;24.30;;;4.68;;
40959;SDS011;27842;52.272;8.052;2023-04-25T03:52:08;22.80;;;4.88;;
40959;SDS011;27842;52.272;8.052;2023-04-25T03:54:33;21.17;;;5.25;;
40959;SDS011;27842;52.272;8.052;2023-04-25T03:56:59;23.92;;;5.57;;
40959;SDS011;27842;52.272;8.052;2023-04-25T03:59:25;23.38;;;5.35;;
40959;SDS011;27842;52.272;8.052;2023-04-25T04:01:51;26.55;;;4.75;;
40959;SDS011;27842;52.272;8.052;2023-04-25T04:04:17;25.65;;;5.28;;
40959;SDS011;27842;52.272;8.052;2023-04-25T04:06:43;25.02;;;4.43;;
40959;SDS011;27842;52.272;8.052;2023-04-25T04:09:08;23.45;;;5.75;;
40959;SDS011;27842;52.272;8.052;2023-04-25T04:11:36;20.38;;;5.13;;
40959;SDS011;27842;52.272;8.052;2023-04-25T04:14:03;19.47;;;4.30;;
40959;SDS011;27842;52.272;8.052;2023-04-25T04:16:32;24.15;;;5.65;;
40959;SDS011;27842;52.272;8.052;2023-04-25T04:18:57;22.02;;;5.18;;
40959;SDS011;27842;52.272;8.052;2023-04-25T04:21:23;24.92;;;6.30;;
40959;SDS011;27842;52.272;8.052;2023-04-25T04:23:49;21.08;;;4.82;;
40959;SDS011;27842;52.272;8.052;2023-04-25T04:26:14;22.45;;;5.05;;
40959;SDS011;27842;52.272;8.052;2023-04-25T04:28:43;22.35;;;4.97;;
40959;SDS011;27842;52.272;8.052;2023-04-25T04:31:11;24.33;;;5.30;;
40959;SDS011;27842;52.272;8.052;2023-04-25T04:33:37;26.33;;;6.05;;
40959;SDS011;27842;52.272;8.052;2023-04-25T04:36:03;23.57;;;5.20;;
40959;SDS011;27842;52.272;8.052;2023-04-25T04:38:29;19.77;;;5.20;;
40959;SDS011;27842;52.272;8.052;2023-04-25T04:40:55;23.80;;;6.63;;
40959;SDS011;27842;52.272;8.052;2023-04-25T04:43:21;26.15;;;7.00;;
40959;SDS011;27842;52.272;8.052;2023-04-25T04:45:47;19.58;;;5.18;;
40959;SDS011;27842;52.272;8.052;2023-04-25T04:48:15;21.77;;;5.20;;
40959;SDS011;27842;52.272;8.052;2023-04-25T04:50:42;25.48;;;5.40;;
40959;SDS011;27842;52.272;8.052;2023-04-25T04:53:10;23.88;;;4.90;;
40959;SDS011;27842;52.272;8.052;2023-04-25T04:55:36;18.27;;;4.80;;
40959;SDS011;27842;52.272;8.052;2023-04-25T04:58:01;22.45;;;5.05;;
40959;SDS011;27842;52.272;8.052;2023-04-25T05:00:27;20.67;;;4.82;;
40959;SDS011;27842;52.272;8.052;2023-04-25T05:02:54;21.85;;;4.07;;
40959;SDS011;27842;52.272;8.052;2023-04-25T05:05:20;22.05;;;4.43;;
40959;SDS011;27842;52.272;8.052;2023-04-25T05:07:46;25.70;;;5.25;;
40959;SDS011;27842;52.272;8.052;2023-04-25T05:10:12;20.95;;;5.07;;
40959;SDS011;27842;52.272;8.052;2023-04-25T05:12:38;20.67;;;4.35;;
40959;SDS011;27842;52.272;8.052;2023-04-25T05:15:03;21.60;;;4.35;;
40959;SDS011;27842;52.272;8.052;2023-04-25T05:17:29;23.35;;;4.53;;
40959;SDS011;27842;52.272;8.052;2023-04-25T05:19:55;23.33;;;4.90;;
40959;SDS011;27842;52.272;8.052;2023-04-25T05:22:22;23.42;;;4.40;;
40959;SDS011;27842;52.272;8.052;2023-04-25T05:24:48;20.23;;;4.60;;
40959;SDS011;27842;52.272;8.052;2023-04-25T05:27:15;24.80;;;6.20;;
40959;SDS011;27842;52.272;8.052;2023-04-25T05:29:42;19.60;;;4.10;;
40959;SDS011;27842;52.272;8.052;2023-04-25T05:32:07;20.87;;;4.07;;
40959;SDS011;27842;52.272;8.052;2023-04-25T05:34:34;20.63;;;4.53;;
40959;SDS011;27842;52.272;8.052;2023-04-25T05:36:59;23.70;;;4.83;;
40959;SDS011;27842;52.272;8.052;2023-04-25T05:39:25;23.43;;;4.50;;
40959;SDS011;27842;52.272;8.052;2023-04-25T05:41:51;19.83;;;4.37;;
40959;SDS011;27842;52.272;8.052;2023-04-25T05:44:17;18.85;;;4.20;;
40959;SDS011;27842;52.272;8.052;2023-04-25T05:46:43;22.92;;;4.20;;
40959;SDS011;27842;52.272;8.052;2023-04-25T05:49:09;19.63;;;4.45;;
40959;SDS011;27842;52.272;8.052;2023-04-25T05:51:34;19.88;;;5.30;;
40959;SDS011;27842;52.272;8.052;2023-04-25T05:54:00;25.13;;;5.10;;
40959;SDS011;27842;52.272;8.052;2023-04-25T05:56:25;22.77;;;4.13;;
40959;SDS011;27842;52.272;8.052;2023-04-25T05:58:51;22.77;;;5.17;;
40959;SDS011;27842;52.272;8.052;2023-04-25T06:01:17;24.73;;;5.72;;
40959;SDS011;27842;52.272;8.052;2023-04-25T06:03:42;22.30;;;4.40;;
40959;SDS011;27842;52.272;8.052;2023-04-25T06:06:08;21.00;;;5.05;;
40959;SDS011;27842;52.272;8.052;2023-04-25T06:08:34;22.55;;;4.53;;
40959;SDS011;27842;52.272;8.052;2023-04-25T06:11:00;21.23;;;4.90;;
40959;SDS011;27842;52.272;8.052;2023-04-25T06:13:26;22.70;;;4.07;;
40959;SDS011;27842;52.272;8.052;2023-04-25T06:15:55;21.73;;;4.63;;
40959;SDS011;27842;52.272;8.052;2023-04-25T06:18:21;22.80;;;5.05;;
40959;SDS011;27842;52.272;8.052;2023-04-25T06:20:46;24.00;;;4.32;;
40959;SDS011;27842;52.272;8.052;2023-04-25T06:23:12;20.70;;;4.00;;
40959;SDS011;27842;52.272;8.052;2023-04-25T06:25:37;20.65;;;4.30;;
40959;SDS011;27842;52.272;8.052;2023-04-25T06:28:03;18.88;;;4.32;;
40959;SDS011;27842;52.272;8.052;2023-04-25T06:30:29;19.98;;;4.50;;
40959;SDS011;27842;52.272;8.052;2023-04-25T06:32:54;22.35;;;4.15;;
40959;SDS011;27842;52.272;8.052;2023-04-25T06:35:20;20.70;;;4.32;;
40959;SDS011;27842;52.272;8.052;2023-04-25T06:37:46;18.85;;;3.90;;
40959;SDS011;27842;52.272;8.052;2023-04-25T06:40:12;25.00;;;6.13;;
40959;SDS011;27842;52.272;8.052;2023-04-25T06:42:37;22.00;;;4.00;;
40959;SDS011;27842;52.272;8.052;2023-04-25T06:45:03;20.70;;;3.75;;
40959;SDS011;27842;52.272;8.052;2023-04-25T06:47:29;21.88;;;4.18;;
40959;SDS011;27842;52.272;8.052;2023-04-25T06:49:55;20.55;;;3.95;;
40959;SDS011;27842;52.272;8.052;2023-04-25T06:52:20;21.00;;;3.92;;
40959;SDS011;27842;52.272;8.052;2023-04-25T06:54:46;22.77;;;4.00;;
40959;SDS011;27842;52.272;8.052;2023-04-25T06:57:12;19.75;;;3.92;;
40959;SDS011;27842;52.272;8.052;2023-04-25T06:59:38;21.77;;;4.00;;
40959;SDS011;27842;52.272;8.052;2023-04-25T07:02:03;17.55;;;4.00;;
40959;SDS011;27842;52.272;8.052;2023-04-25T07:04:29;23.30;;;4.55;;
40959;SDS011;27842;52.272;8.052;2023-04-25T07:06:55;22.98;;;3.65;;
40959;SDS011;27842;52.272;8.052;2023-04-25T07:09:21;15.95;;;3.88;;
40959;SDS011;27842;52.272;8.052;2023-04-25T07:11:47;21.33;;;3.58;;
40959;SDS011;27842;52.272;8.052;2023-04-25T07:14:13;22.60;;;4.10;;
40959;SDS011;27842;52.272;8.052;2023-04-25T07:16:39;19.30;;;3.40;;
40959;SDS011;27842;52.272;8.052;2023-04-25T07:19:04;19.42;;;3.92;;
40959;SDS011;27842;52.272;8.052;2023-04-25T07:21:30;18.15;;;3.63;;
40959;SDS011;27842;52.272;8.052;2023-04-25T07:23:56;20.85;;;3.20;;
40959;SDS011;27842;52.272;8.052;2023-04-25T07:26:22;18.58;;;3.20;;
40959;SDS011;27842;52.272;8.052;2023-04-25T07:28:48;18.58;;;3.35;;
40959;SDS011;27842;52.272;8.052;2023-04-25T07:31:15;17.25;;;3.17;;
40959;SDS011;27842;52.272;8.052;2023-04-25T07:33:44;22.15;;;3.25;;
40959;SDS011;27842;52.272;8.052;2023-04-25T07:36:10;18.60;;;3.70;;
40959;SDS011;27842;52.272;8.052;2023-04-25T07:38:37;21.45;;;3.40;;
40959;SDS011;27842;52.272;8.052;2023-04-25T07:41:03;19.05;;;2.85;;
40959;SDS011;27842;52.272;8.052;2023-04-25T07:43:29;15.50;;;3.15;;
40959;SDS011;27842;52.272;8.052;2023-04-25T07:45:56;15.35;;;2.75;;
40959;SDS011;27842;52.272;8.052;2023-04-25T07:48:22;21.65;;;3.65;;
40959;SDS011;27842;52.272;8.052;2023-04-25T07:50:48;16.85;;;3.40;;
40959;SDS011;27842;52.272;8.052;2023-04-25T07:53:13;18.33;;;3.72;;
40959;SDS011;27842;52.272;8.052;2023-04-25T07:55:39;17.65;;;3.60;;
40959;SDS011;27842;52.272;8.052;2023-04-25T07:58:05;16.10;;;3.60;;
40959;SDS011;27842;52.272;8.052;2023-04-25T08:00:35;19.65;;;2.70;;
40959;SDS011;27842;52.272;8.052;2023-04-25T08:03:01;19.83;;;3.10;;
40959;SDS011;27842;52.272;8.052;2023-04-25T08:05:27;14.60;;;2.47;;
40959;SDS011;27842;52.272;8.052;2023-04-25T08:07:53;16.52;;;3.50;;
40959;SDS011;27842;52.272;8.052;2023-04-25T08:10:19;18.23;;;2.95;;
40959;SDS011;27842;52.272;8.052;2023-04-25T08:12:45;18.90;;;2.72;;
40959;SDS011;27842;52.272;8.052;2023-04-25T08:15:11;16.30;;;2.60;;
40959;SDS011;27842;52.272;8.052;2023-04-25T08:17:38;16.75;;;2.58;;
40959;SDS011;27842;52.272;8.052;2023-04-25T08:20:04;13.52;;;2.60;;
40959;SDS011;27842;52.272;8.052;2023-04-25T08:22:30;11.02;;;2.10;;
40959;SDS011;27842;52.272;8.052;2023-04-25T08:24:56;14.85;;;2.50;;
40959;SDS011;27842;52.272;8.052;2023-04-25T08:27:22;10.85;;;2.20;;
40959;SDS011;27842;52.272;8.052;2023-04-25T08:29:48;14.80;;;2.28;;
40959;SDS011;27842;52.272;8.052;2023-04-25T08:32:15;12.32;;;2.30;;
40959;SDS011;27842;52.272;8.052;2023-04-25T08:34:40;18.95;;;2.60;;
40959;SDS011;27842;52.272;8.052;2023-04-25T08:37:07;15.90;;;3.10;;
40959;SDS011;27842;52.272;8.052;2023-04-25T08:39:34;15.65;;;2.78;;
40959;SDS011;27842;52.272;8.052;2023-04-25T08:42:04;13.68;;;2.25;;
40959;SDS011;27842;52.272;8.052;2023-04-25T08:44:34;12.80;;;3.10;;
40959;SDS011;27842;52.272;8.052;2023-04-25T08:47:01;13.52;;;2.50;;
40959;SDS011;27842;52.272;8.052;2023-04-25T08:49:29;15.35;;;2.38;;
40959;SDS011;27842;52.272;8.052;2023-04-25T08:51:59;17.90;;;2.40;;
40959;SDS011;27842;52.272;8.052;2023-04-25T08:54:29;16.48;;;2.42;;
40959;SDS011;27842;52.272;8.052;2023-04-25T08:56:56;14.80;;;2.90;;
40959;SDS011;27842;52.272;8.052;2023-04-25T08:59:26;15.55;;;2.60;;
40959;SDS011;27842;52.272;8.052;2023-04-25T09:01:53;10.20;;;2.40;;
40959;SDS011;27842;52.272;8.052;2023-04-25T09:04:19;11.93;;;2.13;;
40959;SDS011;27842;52.272;8.052;2023-04-25T09:06:45;12.77;;;2.28;;
40959;SDS011;27842;52.272;8.052;2023-04-25T09:09:11;14.25;;;2.42;;
40959;SDS011;27842;52.272;8.052;2023-04-25T09:11:37;21.17;;;2.53;;
40959;SDS011;27842;52.272;8.052;2023-04-25T09:14:10;12.98;;;2.25;;
40959;SDS011;27842;52.272;8.052;2023-04-25T09:16:52;15.50;;;2.15;;
40959;SDS011;27842;52.272;8.052;2023-04-25T09:19:23;14.48;;;2.55;;
40959;SDS011;27842;52.272;8.052;2023-04-25T09:21:50;11.52;;;2.15;;
40959;SDS011;27842;52.272;8.052;2023-04-25T09:24:15;13.98;;;2.25;;
40959;SDS011;27842;52.272;8.052;2023-04-25T09:26:44;11.63;;;2.17;;
40959;SDS011;27842;52.272;8.052;2023-04-25T09:29:10;10.77;;;2.03;;
40959;SDS011;27842;52.272;8.052;2023-04-25T09:31:35;13.35;;;2.30;;
40959;SDS011;27842;52.272;8.052;2023-04-25T09:34:01;11.35;;;2.05;;
40959;SDS011;27842;52.272;8.052;2023-04-25T09:36:27;14.60;;;2.28;;
40959;SDS011;27842;52.272;8.052;2023-04-25T09:38:54;14.45;;;2.45;;
40959;SDS011;27842;52.272;8.052;2023-04-25T09:41:24;12.73;;;2.42;;
40959;SDS011;27842;52.272;8.052;2023-04-25T09:43:50;11.27;;;2.42;;
40959;SDS011;27842;52.272;8.052;2023-04-25T09:46:16;13.52;;;2.47;;
40959;SDS011;27842;52.272;8.052;2023-04-25T09:48:49;12.73;;;2.28;;
40959;SDS011;27842;52.272;8.052;2023-04-25T09:51:16;13.18;;;2.10;;
40959;SDS011;27842;52.272;8.052;2023-04-25T09:53:42;7.15;;;2.05;;
40959;SDS011;27842;52.272;8.052;2023-04-25T09:56:15;16.33;;;2.55;;
40959;SDS011;27842;52.272;8.052;2023-04-25T09:58:41;9.05;;;1.67;;
40959;SDS011;27842;52.272;8.052;2023-04-25T10:01:10;10.48;;;2.55;;
40959;SDS011;27842;52.272;8.052;2023-04-25T10:03:37;13.10;;;2.20;;
40959;SDS011;27842;52.272;8.052;2023-04-25T10:06:08;13.18;;;2.40;;
40959;SDS011;27842;52.272;8.052;2023-04-25T10:08:37;12.13;;;2.13;;
40959;SDS011;27842;52.272;8.052;2023-04-25T10:11:05;13.43;;;2.63;;
40959;SDS011;27842;52.272;8.052;2023-04-25T10:13:32;23.17;;;3.10;;
40959;SDS011;27842;52.272;8.052;2023-04-25T10:15:59;12.27;;;2.50;;
40959;SDS011;27842;52.272;8.052;2023-04-25T10:18:26;13.73;;;2.70;;
40959;SDS011;27842;52.272;8.052;2023-04-25T10:20:53;17.40;;;2.88;;
40959;SDS011;27842;52.272;8.052;2023-04-25T10:23:21;14.40;;;2.67;;
40959;SDS011;27842;52.272;8.052;2023-04-25T10:25:47;16.08;;;3.30;;
40959;SDS011;27842;52.272;8.052;2023-04-25T10:28:14;12.70;;;2.80;;
40959;SDS011;27842;52.272;8.052;2023-04-25T10:30:59;15.93;;;3.38;;
40959;SDS011;27842;52.272;8.052;2023-04-25T10:33:35;14.45;;;2.67;;
40959;SDS011;27842;52.272;8.052;2023-04-25T10:36:12;15.63;;;2.85;;
40959;SDS011;27842;52.272;8.052;2023-04-25T10:38:39;13.63;;;2.58;;
40959;SDS011;27842;52.272;8.052;2023-04-25T10:41:05;19.20;;;3.22;;
40959;SDS011;27842;52.272;8.052;2023-04-25T10:43:34;11.40;;;3.58;;
40959;SDS011;27842;52.272;8.052;2023-04-25T10:46:01;20.23;;;4.45;;
40959;SDS011;27842;52.272;8.052;2023-04-25T10:48:28;12.93;;;2.70;;
40959;SDS011;27842;52.272;8.052;2023-04-25T10:51:08;14.70;;;2.10;;
40959;SDS011;27842;52.272;8.052;2023-04-25T10:53:34;9.77;;;2.20;;
40959;SDS011;27842;52.272;8.052;2023-04-25T10:56:00;15.38;;;2.50;;
40959;SDS011;27842;52.272;8.052;2023-04-25T10:58:34;11.10;;;2.42;;
40959;SDS011;27842;52.272;8.052;2023-04-25T11:01:01;12.77;;;2.20;;
40959;SDS011;27842;52.272;8.052;2023-04-25T11:03:26;11.00;;;2.38;;
40959;SDS011;27842;52.272;8.052;2023-04-25T11:05:52;15.38;;;2.78;;
40959;SDS011;27842;52.272;8.052;2023-04-25T11:08:20;11.57;;;2.72;;
40959;SDS011;27842;52.272;8.052;2023-04-25T11:11:08;14.38;;;2.67;;
40959;SDS011;27842;52.272;8.052;2023-04-25T11:13:33;12.48;;;2.30;;
40959;SDS011;27842;52.272;8.052;2023-04-25T11:15:59;11.70;;;3.10;;
40959;SDS011;27842;52.272;8.052;2023-04-25T11:18:26;14.35;;;2.63;;
40959;SDS011;27842;52.272;8.052;2023-04-25T11:20:52;8.90;;;2.00;;
40959;SDS011;27842;52.272;8.052;2023-04-25T11:23:17;13.18;;;2.40;;
40959;SDS011;27842;52.272;8.052;2023-04-25T11:25:43;10.13;;;2.20;;
40959;SDS011;27842;52.272;8.052;2023-04-25T11:28:13;10.50;;;2.03;;
40959;SDS011;27842;52.272;8.052;2023-04-25T11:30:47;12.45;;;2.40;;
40959;SDS011;27842;52.272;8.052;2023-04-25T11:33:15;15.00;;;2.33;;
40959;SDS011;27842;52.272;8.052;2023-04-25T11:35:41;10.48;;;2.03;;
40959;SDS011;27842;52.272;8.052;2023-04-25T11:38:07;9.10;;;1.90;;
40959;SDS011;27842;52.272;8.052;2023-04-25T11:40:32;11.95;;;2.45;;
40959;SDS011;27842;52.272;8.052;2023-04-25T11:42:59;13.68;;;3.15;;
40959;SDS011;27842;52.272;8.052;2023-04-25T11:45:26;7.78;;;2.10;;
40959;SDS011;27842;52.272;8.052;2023-04-25T11:47:52;10.57;;;2.65;;
40959;SDS011;27842;52.272;8.052;2023-04-25T11:50:17;13.40;;;2.75;;
40959;SDS011;27842;52.272;8.052;2023-04-25T11:52:46;12.20;;;2.55;;
40959;SDS011;27842;52.272;8.052;2023-04-25T11:55:14;9.40;;;2.70;;
40959;SDS011;27842;52.272;8.052;2023-04-25T11:57:47;13.43;;;2.30;;
40959;SDS011;27842;52.272;8.052;2023-04-25T12:00:15;9.70;;;1.98;;
40959;SDS011;27842;52.272;8.052;2023-04-25T12:02:46;6.55;;;1.73;;
40959;SDS011;27842;52.272;8.052;2023-04-25T12:05:14;11.48;;;2.50;;
40959;SDS011;27842;52.272;8.052;2023-04-25T12:07:43;7.13;;;1.60;;
40959;SDS011;27842;52.272;8.052;2023-04-25T12:10:10;10.90;;;2.13;;
40959;SDS011;27842;52.272;8.052;2023-04-25T12:12:37;8.55;;;1.83;;
40959;SDS011;27842;52.272;8.052;2023-04-25T12:15:10;6.95;;;1.63;;
40959;SDS011;27842;52.272;8.052;2023-04-25T12:17:41;8.40;;;1.65;;
40959;SDS011;27842;52.272;8.052;2023-04-25T12:20:10;4.93;;;1.45;;
40959;SDS011;27842;52.272;8.052;2023-04-25T12:22:41;6.45;;;1.38;;
40959;SDS011;27842;52.272;8.052;2023-04-25T12:25:12;8.95;;;1.48;;
40959;SDS011;27842;52.272;8.052;2023-04-25T12:28:08;10.40;;;2.05;;
40959;SDS011;27842;52.272;8.052;2023-04-25T12:31:00;11.63;;;1.83;;
40959;SDS011;27842;52.272;8.052;2023-04-25T12:33:25;6.88;;;1.70;;
40959;SDS011;27842;52.272;8.052;2023-04-25T12:35:53;7.47;;;1.75;;
40959;SDS011;27842;52.272;8.052;2023-04-25T12:38:22;9.45;;;1.88;;
40959;SDS011;27842;52.272;8.052;2023-04-25T12:40:49;8.98;;;2.60;;
40959;SDS011;27842;52.272;8.052;2023-04-25T12:43:15;5.30;;;1.75;;
40959;SDS011;27842;52.272;8.052;2023-04-25T12:45:40;8.20;;;1.75;;
40959;SDS011;27842;52.272;8.052;2023-04-25T12:48:06;5.22;;;1.58;;
40959;SDS011;27842;52.272;8.052;2023-04-25T12:50:32;8.43;;;1.65;;
40959;SDS011;27842;52.272;8.052;2023-04-25T12:52:57;7.03;;;1.52;;
40959;SDS011;27842;52.272;8.052;2023-04-25T12:55:23;6.82;;;1.38;;
40959;SDS011;27842;52.272;8.052;2023-04-25T12:57:49;8.13;;;1.58;;
40959;SDS011;27842;52.272;8.052;2023-04-25T13:00:15;4.40;;;1.27;;
40959;SDS011;27842;52.272;8.052;2023-04-25T13:02:43;6.20;;;1.50;;
40959;SDS011;27842;52.272;8.052;2023-04-25T13:05:08;10.05;;;1.50;;
40959;SDS011;27842;52.272;8.052;2023-04-25T13:07:34;7.18;;;1.80;;
40959;SDS011;27842;52.272;8.052;2023-04-25T13:10:00;10.90;;;2.00;;
40959;SDS011;27842;52.272;8.052;2023-04-25T13:12:27;8.50;;;1.70;;
40959;SDS011;27842;52.272;8.052;2023-04-25T13:14:53;6.82;;;1.73;;
40959;SDS011;27842;52.272;8.052;2023-04-25T13:17:18;4.32;;;1.33;;
40959;SDS011;27842;52.272;8.052;2023-04-25T13:19:44;8.27;;;1.70;;
40959;SDS011;27842;52.272;8.052;2023-04-25T13:22:10;11.23;;;1.98;;
40959;SDS011;27842;52.272;8.052;2023-04-25T13:24:35;6.97;;;1.55;;
40959;SDS011;27842;52.272;8.052;2023-04-25T13:27:01;7.43;;;1.50;;
40959;SDS011;27842;52.272;8.052;2023-04-25T13:29:27;7.72;;;1.92;;
40959;SDS011;27842;52.272;8.052;2023-04-25T13:31:52;7.47;;;1.40;;
40959;SDS011;27842;52.272;8.052;2023-04-25T13:34:18;6.60;;;1.50;;
40959;SDS011;27842;52.272;8.052;2023-04-25T13:36:43;9.38;;;1.83;;
40959;SDS011;27842;52.272;8.052;2023-04-25T13:39:10;6.60;;;1.77;;
40959;SDS011;27842;52.272;8.052;2023-04-25T13:41:36;6.45;;;1.33;;
40959;SDS011;27842;52.272;8.052;2023-04-25T13:44:02;8.73;;;1.55;;
40959;SDS011;27842;52.272;8.052;2023-04-25T13:46:27;11.13;;;2.08;;
40959;SDS011;27842;52.272;8.052;2023-04-25T13:48:53;5.22;;;1.60;;
40959;SDS011;27842;52.272;8.052;2023-04-25T13:51:18;8.57;;;1.75;;
40959;SDS011;27842;52.272;8.052;2023-04-25T13:53:44;10.60;;;1.80;;
40959;SDS011;27842;52.272;8.052;2023-04-25T13:56:10;8.90;;;1.92;;
40959;SDS011;27842;52.272;8.052;2023-04-25T13:58:36;8.15;;;1.80;;
40959;SDS011;27842;52.272;8.052;2023-04-25T14:01:02;8.43;;;1.45;;
40959;SDS011;27842;52.272;8.052;2023-04-25T14:03:28;7.75;;;1.70;;
40959;SDS011;27842;52.272;8.052;2023-04-25T14:05:55;7.22;;;1.92;;
40959;SDS011;27842;52.272;8.052;2023-04-25T14:08:20;9.82;;;1.92;;
40959;SDS011;27842;52.272;8.052;2023-04-25T14:10:46;7.40;;;1.48;;
40959;SDS011;27842;52.272;8.052;2023-04-25T14:13:11;8.63;;;1.58;;
40959;SDS011;27842;52.272;8.052;2023-04-25T14:15:37;7.13;;;1.35;;
40959;SDS011;27842;52.272;8.052;2023-04-25T14:18:03;10.15;;;1.50;;
40959;SDS011;27842;52.272;8.052;2023-04-25T14:20:29;6.68;;;1.67;;
40959;SDS011;27842;52.272;8.052;2023-04-25T14:22:55;11.40;;;1.70;;
40959;SDS011;27842;52.272;8.052;2023-04-25T14:25:24;8.07;;;1.70;;
40959;SDS011;27842;52.272;8.052;2023-04-25T14:27:57;6.90;;;1.55;;
40959;SDS011;27842;52.272;8.052;2023-04-25T14:30:22;10.02;;;1.67;;
40959;SDS011;27842;52.272;8.052;2023-04-25T14:32:48;6.78;;;1.67;;